createdAt,value
2019-05-16T00:02:25.409Z,55.43
2019-05-16T00:04:53.734Z,54.93
2019-05-16T00:07:22.039Z,54.89
2019-05-16T00:09:50.347Z,54.71
2019-05-16T00:12:18.653Z,54.47
2019-05-16T00:14:48.977Z,54.46
2019-05-16T00:17:18.853Z,54.39
2019-05-16T00:19:48.426Z,54.34
2019-05-16T00:22:18.229Z,54.31
2019-05-16T00:24:48.617Z,54.12
2019-05-16T00:27:18.464Z,54.19
2019-05-16T00:29:48.756Z,54.25
2019-05-16T00:32:18.947Z,54.22
2019-05-16T00:34:47.772Z,54.21
2019-05-16T00:37:18.186Z,54.47
2019-05-16T00:39:48.099Z,54.41
2019-05-16T00:42:18.000Z,54.58
2019-05-16T00:44:47.887Z,54.72
2019-05-16T00:47:17.865Z,54.98
2019-05-16T00:49:48.050Z,55.12
2019-05-16T00:52:18.390Z,55.31
2019-05-16T00:54:48.509Z,55.38
2019-05-16T00:57:18.850Z,55.46
2019-05-16T00:59:48.565Z,55.69
2019-05-16T01:02:18.160Z,56.03
2019-05-16T01:04:48.578Z,56.20
2019-05-16T01:07:18.662Z,56.15
2019-05-16T01:09:48.650Z,56.29
2019-05-16T01:12:17.799Z,56.24
2019-05-16T01:14:47.816Z,56.22
2019-05-16T01:17:18.171Z,56.25
2019-05-16T01:19:48.326Z,56.24
2019-05-16T01:22:18.535Z,56.17
2019-05-16T01:24:49.085Z,55.98
2019-05-16T01:27:18.461Z,55.42
2019-05-16T01:29:47.738Z,55.41
2019-05-16T01:32:16.101Z,55.05
2019-05-16T01:34:44.424Z,54.54
2019-05-16T01:37:12.720Z,54.66
2019-05-16T01:39:41.027Z,54.66
2019-05-16T01:42:09.325Z,54.65
2019-05-16T01:44:38.225Z,54.76
2019-05-16T01:47:08.856Z,54.53
2019-05-16T01:49:38.087Z,54.32
2019-05-16T01:52:08.498Z,54.15
2019-05-16T01:54:38.710Z,54.01
2019-05-16T01:57:08.130Z,53.68
2019-05-16T01:59:38.006Z,53.32
2019-05-16T02:02:08.432Z,53.41
2019-05-16T02:04:37.958Z,53.88
2019-05-16T02:07:08.567Z,53.57
2019-05-16T02:09:38.421Z,53.56
2019-05-16T02:12:08.195Z,53.65
2019-05-16T02:14:38.722Z,53.47
2019-05-16T02:17:10.903Z,53.60
2019-05-16T02:19:38.490Z,53.35
2019-05-16T02:22:08.914Z,53.09
2019-05-16T02:24:38.783Z,52.99
2019-05-16T02:27:09.554Z,52.88
2019-05-16T02:29:37.409Z,53.07
2019-05-16T02:32:06.010Z,53.18
2019-05-16T02:34:34.331Z,53.27
2019-05-16T02:37:19.005Z,53.63
2019-05-16T02:39:32.680Z,53.79
2019-05-16T02:42:01.255Z,53.85
2019-05-16T02:44:31.872Z,54.02
2019-05-16T02:47:01.520Z,53.97
2019-05-16T02:49:33.872Z,53.97
2019-05-16T02:52:01.416Z,53.96
2019-05-16T02:54:31.649Z,53.99
2019-05-16T02:57:01.427Z,53.97
2019-05-16T02:59:30.781Z,53.71
2019-05-16T03:02:00.897Z,53.91
2019-05-16T03:04:30.638Z,53.92
2019-05-16T03:07:00.639Z,53.98
2019-05-16T03:09:30.601Z,53.76
2019-05-16T03:12:01.334Z,53.47
2019-05-16T03:14:31.682Z,53.68
2019-05-16T03:17:03.096Z,53.66
2019-05-16T03:19:33.901Z,53.57
2019-05-16T03:22:02.485Z,53.48
2019-05-16T03:24:31.154Z,53.69
2019-05-16T03:27:01.634Z,53.44
2019-05-16T03:29:30.912Z,53.24
2019-05-16T03:32:03.123Z,53.07
2019-05-16T03:34:34.457Z,52.43
2019-05-16T03:37:04.398Z,52.80
2019-05-16T03:39:31.348Z,52.54
2019-05-16T03:42:01.058Z,52.71
2019-05-16T03:44:31.681Z,52.66
2019-05-16T03:47:01.011Z,52.69
2019-05-16T03:49:31.211Z,52.76
2019-05-16T03:52:01.538Z,52.83
2019-05-16T03:54:31.499Z,52.77
2019-05-16T03:57:00.547Z,52.81
2019-05-16T03:59:31.456Z,52.46
2019-05-16T04:02:01.480Z,52.69
2019-05-16T04:04:30.906Z,52.34
2019-05-16T04:07:01.440Z,52.45
2019-05-16T04:09:31.561Z,52.62
2019-05-16T04:12:01.748Z,52.67
2019-05-16T04:14:30.941Z,52.77
2019-05-16T04:17:01.581Z,52.67
2019-05-16T04:19:31.393Z,52.86
2019-05-16T04:22:01.322Z,52.86
2019-05-16T04:24:31.677Z,52.67
2019-05-16T04:27:01.010Z,52.81
2019-05-16T04:29:31.623Z,52.71
2019-05-16T04:32:01.373Z,52.90
2019-05-16T04:34:31.131Z,53.07
2019-05-16T04:37:01.117Z,53.14
2019-05-16T04:39:31.911Z,53.10
2019-05-16T04:42:01.599Z,53.50
2019-05-16T04:44:31.049Z,53.77
2019-05-16T04:47:01.530Z,54.36
2019-05-16T04:49:31.941Z,54.87
2019-05-16T04:52:00.579Z,55.34
2019-05-16T04:54:30.873Z,55.65
2019-05-16T04:57:01.464Z,56.20
2019-05-16T04:59:31.227Z,56.52
2019-05-16T05:02:01.925Z,56.89
2019-05-16T05:04:30.678Z,56.73
2019-05-16T05:07:00.507Z,56.83
2019-05-16T05:09:31.717Z,56.54
2019-05-16T05:12:04.131Z,56.29
2019-05-16T05:14:30.820Z,56.31
2019-05-16T05:17:01.482Z,56.43
2019-05-16T05:19:30.667Z,56.65
2019-05-16T05:22:01.278Z,56.54
2019-05-16T05:24:30.254Z,56.61
2019-05-16T05:26:59.814Z,56.12
2019-05-16T05:29:30.564Z,55.88
2019-05-16T05:32:03.987Z,55.98
2019-05-16T05:34:30.462Z,55.54
2019-05-16T05:37:00.311Z,55.61
2019-05-16T05:39:30.296Z,55.62
2019-05-16T05:42:00.056Z,55.48
2019-05-16T05:44:30.565Z,55.00
2019-05-16T05:47:00.531Z,54.71
2019-05-16T05:49:30.175Z,54.54
2019-05-16T05:52:00.835Z,54.35
2019-05-16T05:54:30.846Z,54.47
2019-05-16T05:57:00.670Z,54.37
2019-05-16T05:59:30.619Z,54.75
2019-05-16T06:02:00.791Z,54.94
2019-05-16T06:04:30.536Z,55.33
2019-05-16T06:07:01.210Z,55.42
2019-05-16T06:09:32.891Z,55.41
2019-05-16T06:12:00.780Z,55.84
2019-05-16T06:14:30.664Z,55.76
2019-05-16T06:17:00.383Z,55.76
2019-05-16T06:19:29.801Z,55.18
2019-05-16T06:22:02.560Z,55.30
2019-05-16T06:24:30.840Z,54.21
2019-05-16T06:27:00.912Z,54.02
2019-05-16T06:29:30.958Z,53.27
2019-05-16T06:32:00.224Z,52.29
2019-05-16T06:34:30.140Z,53.07
2019-05-16T06:37:00.520Z,52.78
2019-05-16T06:39:39.203Z,52.34
2019-05-16T06:42:00.539Z,52.69
2019-05-16T06:44:30.893Z,51.46
2019-05-16T06:47:12.666Z,51.89
2019-05-16T06:49:30.384Z,51.78
2019-05-16T06:51:59.694Z,51.54
2019-05-16T06:54:29.858Z,51.19
2019-05-16T06:57:00.164Z,51.55
2019-05-16T06:59:29.778Z,51.52
2019-05-16T07:02:00.394Z,50.42
2019-05-16T07:04:30.465Z,50.57
2019-05-16T07:07:02.876Z,51.17
2019-05-16T07:09:30.129Z,51.51
2019-05-16T07:11:59.892Z,51.57
2019-05-16T07:14:31.145Z,51.07
2019-05-16T07:17:00.257Z,50.74
2019-05-16T07:19:30.174Z,50.82
2019-05-16T07:21:59.841Z,51.03
2019-05-16T07:24:30.549Z,51.81
2019-05-16T07:27:00.305Z,52.18
2019-05-16T07:29:30.899Z,52.14
2019-05-16T07:32:00.471Z,52.81
2019-05-16T07:34:31.221Z,53.71
2019-05-16T07:37:00.449Z,52.97
2019-05-16T07:39:30.696Z,52.64
2019-05-16T07:41:59.975Z,53.60
2019-05-16T07:44:30.938Z,54.12
2019-05-16T07:47:00.978Z,55.00
2019-05-16T07:49:30.457Z,54.09
2019-05-16T07:52:00.629Z,54.49
2019-05-16T07:54:34.022Z,53.64
2019-05-16T07:57:12.258Z,54.12
2019-05-16T07:59:30.066Z,54.67
2019-05-16T08:02:00.600Z,55.41
2019-05-16T08:04:30.358Z,55.12
2019-05-16T08:07:00.705Z,55.99
2019-05-16T08:09:30.618Z,55.69
2019-05-16T08:11:58.797Z,55.59
2019-05-16T08:14:27.134Z,55.94
2019-05-16T08:16:55.442Z,55.63
2019-05-16T08:19:25.373Z,55.79
2019-05-16T08:21:53.795Z,56.01
2019-05-16T08:24:22.115Z,56.51
2019-05-16T08:29:22.023Z,56.93
2019-05-16T08:31:52.712Z,54.95
2019-05-16T08:34:20.963Z,54.50
2019-05-16T08:36:51.869Z,54.85
2019-05-16T08:39:21.429Z,55.07
2019-05-16T08:41:51.875Z,54.85
2019-05-16T08:44:21.498Z,54.83
2019-05-16T08:46:57.008Z,55.24
2019-05-16T08:49:22.101Z,54.70
2019-05-16T08:51:52.879Z,53.27
2019-05-16T08:54:21.362Z,54.03
2019-05-16T08:56:51.082Z,53.87
2019-05-16T08:59:21.545Z,53.75
2019-05-16T09:04:24.457Z,52.79
2019-05-16T09:06:52.509Z,52.31
2019-05-16T09:09:38.135Z,52.15
2019-05-16T09:10:31.976Z,54.40
2019-05-16T09:10:40.383Z,56.51
2019-05-16T09:11:49.900Z,51.34
2019-05-16T09:14:18.206Z,51.35
2019-05-16T09:16:47.795Z,51.26
2019-05-16T09:19:17.005Z,52.05
2019-05-16T09:21:47.489Z,50.94
2019-05-16T09:24:17.860Z,51.70
2019-05-16T09:26:47.385Z,52.39
2019-05-16T09:29:16.804Z,52.80
2019-05-16T09:32:07.279Z,52.60
2019-05-16T09:34:17.508Z,50.99
2019-05-16T09:36:48.065Z,51.67
2019-05-16T09:39:17.085Z,49.91
2019-05-16T09:41:50.980Z,50.21
2019-05-16T09:44:18.316Z,50.10
2019-05-16T09:46:47.130Z,49.83
2019-05-16T09:49:22.755Z,49.91
2019-05-16T09:51:46.651Z,50.05
2019-05-16T09:54:16.750Z,49.77
2019-05-16T09:56:46.447Z,50.47
2019-05-16T09:59:17.195Z,51.08
2019-05-16T10:01:47.803Z,50.74
2019-05-16T10:04:17.465Z,50.68
2019-05-16T10:06:45.343Z,51.18
2019-05-16T10:09:13.653Z,52.05
2019-05-16T10:11:42.898Z,52.32
2019-05-16T10:14:11.839Z,52.76
2019-05-16T10:16:40.153Z,52.98
2019-05-16T10:19:08.453Z,54.09
2019-05-16T10:21:37.280Z,55.09
2019-05-16T10:24:07.309Z,55.18
2019-05-16T10:26:37.206Z,55.71
2019-05-16T10:29:10.452Z,55.63
2019-05-16T10:31:45.077Z,55.01
2019-05-16T10:34:07.666Z,54.84
2019-05-16T10:36:37.341Z,54.21
2019-05-16T10:39:07.662Z,53.48
2019-05-16T10:41:37.079Z,53.87
2019-05-16T10:44:06.246Z,53.58
2019-05-16T10:46:37.433Z,52.56
2019-05-16T10:49:04.797Z,51.66
2019-05-16T10:51:33.138Z,51.32
2019-05-16T10:54:09.731Z,51.37
2019-05-16T10:56:31.458Z,51.06
2019-05-16T10:59:38.419Z,52.50
2019-05-16T11:01:31.321Z,53.35
2019-05-16T11:03:59.840Z,52.92
2019-05-16T11:06:29.398Z,52.81
2019-05-16T11:08:57.875Z,53.50
2019-05-16T11:11:27.389Z,54.41
2019-05-16T11:13:56.164Z,54.62
2019-05-16T11:16:27.222Z,54.93
2019-05-16T11:18:54.504Z,55.84
2019-05-16T11:21:22.817Z,55.70
2019-05-16T11:23:51.408Z,55.42
2019-05-16T11:26:19.755Z,55.75
2019-05-16T11:28:49.026Z,54.00
2019-05-16T11:31:17.808Z,54.11
2019-05-16T11:33:47.768Z,54.03
2019-05-16T11:36:16.779Z,52.95
2019-05-16T11:38:47.431Z,53.48
2019-05-16T11:41:16.704Z,54.29
2019-05-16T11:43:47.209Z,55.18
2019-05-16T11:46:15.532Z,54.95
2019-05-16T11:48:44.105Z,54.13
2019-05-16T11:51:12.403Z,54.64
2019-05-16T11:53:40.717Z,56.75
2019-05-16T11:56:09.019Z,56.91
2019-05-16T11:58:37.734Z,57.38
2019-05-16T12:01:07.480Z,58.40
2019-05-16T12:03:37.343Z,58.34
2019-05-16T12:06:10.329Z,58.94
2019-05-16T12:08:37.122Z,58.81
2019-05-16T12:11:06.976Z,57.56
2019-05-16T12:13:36.933Z,56.87
2019-05-16T12:16:07.563Z,56.42
2019-05-16T12:18:37.316Z,56.85
2019-05-16T12:21:07.652Z,56.01
2019-05-16T12:23:37.223Z,55.94
2019-05-16T12:26:07.696Z,55.44
2019-05-16T12:28:35.962Z,55.34
2019-05-16T12:31:04.269Z,55.07
2019-05-16T12:33:32.594Z,55.59
2019-05-16T12:36:01.220Z,56.08
2019-05-16T12:38:29.587Z,55.66
2019-05-16T12:40:57.837Z,56.29
2019-05-16T12:43:44.234Z,55.80
2019-05-16T12:45:56.969Z,56.27
2019-05-16T12:48:25.481Z,55.68
2019-05-16T12:50:53.779Z,55.38
2019-05-16T12:53:23.600Z,55.24
2019-05-16T12:55:52.674Z,55.13
2019-05-16T12:58:26.134Z,56.14
2019-05-16T13:00:57.408Z,55.43
2019-05-16T13:03:21.080Z,55.39
2019-05-16T13:05:49.377Z,55.04
2019-05-16T13:08:17.694Z,55.20
2019-05-16T13:10:47.013Z,54.50
2019-05-16T13:13:17.775Z,54.15
2019-05-16T13:15:47.568Z,53.35
2019-05-16T13:18:16.949Z,53.39
2019-05-16T13:20:46.715Z,53.41
2019-05-16T13:23:18.122Z,52.75
2019-05-16T13:25:47.858Z,53.48
2019-05-16T13:28:15.350Z,53.78
2019-05-16T13:30:43.650Z,54.74
2019-05-16T13:33:11.950Z,54.74
2019-05-16T13:35:40.289Z,54.77
2019-05-16T13:38:08.750Z,53.80
2019-05-16T13:40:37.128Z,54.58
2019-05-16T13:43:09.473Z,53.14
2019-05-16T13:45:37.731Z,53.46
2019-05-16T13:48:08.109Z,53.80
2019-05-16T13:50:39.673Z,53.95
2019-05-16T13:53:07.748Z,53.14
2019-05-16T13:55:37.741Z,53.13
2019-05-16T13:58:07.792Z,53.47
2019-05-16T14:00:37.563Z,53.33
2019-05-16T14:03:07.454Z,53.30
2019-05-16T14:05:37.930Z,53.87
2019-05-16T14:08:07.005Z,53.39
2019-05-16T14:10:37.567Z,53.94
2019-05-16T14:13:07.463Z,54.45
2019-05-16T14:15:36.862Z,54.95
2019-05-16T14:18:07.644Z,55.59
2019-05-16T14:20:37.619Z,56.20
2019-05-16T14:23:08.080Z,55.88
2019-05-16T14:25:38.003Z,55.88
2019-05-16T14:28:07.628Z,55.40
2019-05-16T14:30:37.200Z,56.00
2019-05-16T14:33:12.883Z,56.41
2019-05-16T14:35:37.616Z,55.64
2019-05-16T14:38:06.077Z,57.10
2019-05-16T14:40:37.100Z,57.17
2019-05-16T14:43:07.762Z,56.61
2019-05-16T14:45:34.541Z,57.43
2019-05-16T14:48:02.864Z,57.22
2019-05-16T14:50:31.173Z,57.03
2019-05-16T14:52:59.495Z,57.10
2019-05-16T14:55:27.845Z,56.02
2019-05-16T14:57:56.743Z,55.46
2019-05-16T15:00:27.714Z,55.76
2019-05-16T15:02:56.645Z,55.80
2019-05-16T15:05:25.105Z,56.09
2019-05-16T15:07:53.405Z,56.12
2019-05-16T15:10:21.704Z,55.62
2019-05-16T15:12:50.017Z,56.33
2019-05-16T15:15:24.202Z,56.37
2019-05-16T15:17:52.030Z,56.54
2019-05-16T15:20:20.520Z,56.44
2019-05-16T15:22:48.841Z,57.03
2019-05-16T15:25:17.810Z,57.21
2019-05-16T15:27:47.783Z,57.74
2019-05-16T15:30:17.305Z,57.65
2019-05-16T15:32:48.103Z,57.17
2019-05-16T15:35:18.125Z,57.34
2019-05-16T15:37:48.433Z,57.27
2019-05-16T15:40:18.220Z,57.33
2019-05-16T15:42:46.542Z,57.86
2019-05-16T15:45:17.832Z,57.63
2019-05-16T15:47:46.165Z,57.56
2019-05-16T15:50:17.926Z,57.37
2019-05-16T15:52:45.534Z,57.64
2019-05-16T15:55:14.075Z,57.60
2019-05-16T15:57:42.848Z,57.85
2019-05-16T16:00:11.829Z,57.84
2019-05-16T16:02:40.140Z,58.10
2019-05-16T16:05:08.943Z,59.49
2019-05-16T16:07:38.079Z,60.37
2019-05-16T16:10:07.396Z,61.91
2019-05-16T16:12:37.466Z,62.59
2019-05-16T16:15:07.766Z,63.39
2019-05-16T16:17:38.121Z,63.83
2019-05-16T16:20:10.481Z,64.33
2019-05-16T16:22:37.743Z,64.76
2019-05-16T16:25:07.564Z,66.80
2019-05-16T16:27:35.888Z,67.76
2019-05-16T16:30:06.931Z,68.10
2019-05-16T16:32:38.114Z,68.49
2019-05-16T16:35:08.124Z,68.74
2019-05-16T16:37:37.804Z,68.76
2019-05-16T16:40:11.152Z,68.67
2019-05-16T16:42:37.500Z,69.55
2019-05-16T16:45:07.354Z,69.99
2019-05-16T16:47:37.838Z,70.62
2019-05-16T16:50:07.893Z,70.39
2019-05-16T16:52:37.783Z,70.45
2019-05-16T16:55:07.581Z,70.19
2019-05-16T16:57:38.466Z,70.19
2019-05-16T17:00:08.922Z,70.65
2019-05-16T17:02:37.809Z,70.88
2019-05-16T17:05:11.751Z,70.87
2019-05-16T17:07:37.477Z,70.90
2019-05-16T17:10:07.161Z,70.98
2019-05-16T17:12:41.079Z,70.91
2019-05-16T17:15:09.094Z,70.77
2019-05-16T17:17:37.754Z,71.05
2019-05-16T17:20:07.811Z,71.18
2019-05-16T17:22:37.513Z,71.04
2019-05-16T17:25:07.961Z,70.53
2019-05-16T17:27:37.616Z,70.83
2019-05-16T17:30:20.477Z,71.75
2019-05-16T17:32:48.779Z,71.69
2019-05-16T17:35:19.156Z,72.00
2019-05-16T17:37:50.268Z,73.07
2019-05-16T17:40:18.996Z,74.62
2019-05-16T17:42:48.021Z,75.06
2019-05-16T17:45:18.029Z,75.84
2019-05-16T17:47:46.936Z,75.67
2019-05-16T17:50:17.330Z,75.84
2019-05-16T17:52:47.646Z,76.22
2019-05-16T17:55:17.287Z,76.39
2019-05-16T17:57:45.981Z,76.74
2019-05-16T18:00:22.179Z,77.60
2019-05-16T18:02:46.533Z,78.01
2019-05-16T18:05:16.991Z,78.61
2019-05-16T18:07:47.338Z,79.37
2019-05-16T18:10:17.041Z,79.94
2019-05-16T18:12:47.686Z,80.48
2019-05-16T18:15:18.554Z,80.87
2019-05-16T18:17:46.859Z,81.09
2019-05-16T18:20:15.622Z,81.42
2019-05-16T18:22:43.925Z,81.71
2019-05-16T18:25:12.629Z,82.05
2019-05-16T18:27:40.956Z,82.70
2019-05-16T18:30:10.099Z,82.71
2019-05-16T18:32:38.441Z,83.15
2019-05-16T18:35:08.568Z,83.57
2019-05-16T18:37:36.890Z,83.96
2019-05-16T18:40:08.638Z,84.53
2019-05-16T18:42:37.125Z,84.84
2019-05-16T18:45:07.475Z,85.04
2019-05-16T18:47:37.809Z,85.63
2019-05-16T18:50:07.132Z,86.13
2019-05-16T18:52:37.511Z,86.26
2019-05-16T18:55:09.016Z,86.32
2019-05-16T18:57:37.816Z,86.74
2019-05-16T19:00:10.764Z,87.05
2019-05-16T19:02:37.868Z,87.28
2019-05-16T19:05:07.162Z,87.61
2019-05-16T19:07:36.985Z,87.82
2019-05-16T19:10:07.083Z,87.81
2019-05-16T19:12:37.207Z,88.23
2019-05-16T19:15:09.042Z,88.36
2019-05-16T19:17:37.406Z,88.73
2019-05-16T19:20:06.873Z,88.68
2019-05-16T19:22:37.173Z,88.70
2019-05-16T19:25:07.073Z,89.17
2019-05-16T19:27:36.965Z,89.66
2019-05-16T19:30:09.214Z,89.39
2019-05-16T19:32:39.639Z,89.51
2019-05-16T19:35:07.899Z,89.97
2019-05-16T19:37:40.399Z,90.11
2019-05-16T19:40:07.126Z,90.07
2019-05-16T19:42:36.764Z,90.19
2019-05-16T19:45:09.047Z,90.80
2019-05-16T19:47:40.992Z,90.70
2019-05-16T19:50:08.217Z,90.97
2019-05-16T19:52:36.911Z,91.45
2019-05-16T19:55:08.623Z,91.44
2019-05-16T19:57:37.602Z,91.51
2019-05-16T20:00:08.260Z,91.45
2019-05-16T20:02:36.987Z,91.55
2019-05-16T20:05:07.000Z,91.38
2019-05-16T20:07:37.251Z,91.15
2019-05-16T20:10:09.727Z,91.37
2019-05-16T20:12:38.366Z,91.64
2019-05-16T20:15:11.439Z,91.85
2019-05-16T20:17:50.816Z,91.86
2019-05-16T20:20:08.530Z,91.69
2019-05-16T20:22:37.085Z,91.63
2019-05-16T20:25:06.638Z,91.53
2019-05-16T20:27:36.795Z,91.47
2019-05-16T20:30:07.067Z,91.42
2019-05-16T20:32:37.155Z,91.64
2019-05-16T20:35:08.994Z,91.46
2019-05-16T20:37:36.857Z,91.70
2019-05-16T20:40:09.173Z,91.94
2019-05-16T20:42:36.923Z,92.07
2019-05-16T20:45:07.973Z,92.08
2019-05-16T20:47:36.473Z,91.91
2019-05-16T20:50:07.871Z,91.95
2019-05-16T20:52:37.801Z,91.98
2019-05-16T20:55:07.452Z,91.94
2019-05-16T20:57:37.609Z,92.25
2019-05-16T21:00:08.248Z,92.11
2019-05-16T21:02:37.788Z,91.93
2019-05-16T21:05:07.157Z,92.05
2019-05-16T21:07:37.515Z,92.18
2019-05-16T21:10:10.480Z,92.17
2019-05-16T21:12:40.195Z,91.98
2019-05-16T21:15:09.433Z,91.95
2019-05-16T21:17:38.092Z,92.21
2019-05-16T21:20:07.555Z,92.19
2019-05-16T21:22:36.998Z,92.48
2019-05-16T21:25:06.309Z,92.18
2019-05-16T21:27:37.510Z,92.18
2019-05-16T21:30:08.221Z,92.14
2019-05-16T21:32:36.848Z,92.01
2019-05-16T21:35:07.257Z,92.27
2019-05-16T21:37:37.382Z,92.53
2019-05-16T21:40:07.901Z,92.52
2019-05-16T21:42:36.635Z,92.55
2019-05-16T21:45:07.430Z,92.79
2019-05-16T21:47:36.938Z,93.09
2019-05-16T21:50:07.831Z,93.11
2019-05-16T21:52:36.521Z,92.88
2019-05-16T21:55:07.166Z,92.80
2019-05-16T21:57:37.828Z,92.86
2019-05-16T22:00:13.285Z,92.67
2019-05-16T22:02:41.602Z,92.89
2019-05-16T22:05:10.069Z,93.11
2019-05-16T22:07:38.398Z,92.87
2019-05-16T22:10:07.931Z,92.92
2019-05-16T22:12:38.421Z,92.92
2019-05-16T22:15:06.861Z,92.89
2019-05-16T22:17:36.645Z,93.17
2019-05-16T22:20:07.171Z,93.14
2019-05-16T22:22:37.937Z,93.36
2019-05-16T22:25:07.695Z,93.18
2019-05-16T22:27:35.688Z,93.17
2019-05-16T22:30:09.911Z,93.29
2019-05-16T22:32:38.225Z,93.14
2019-05-16T22:35:07.947Z,92.78
2019-05-16T22:37:49.329Z,93.13
2019-05-16T22:40:07.351Z,93.33
2019-05-16T22:42:37.466Z,93.33
2019-05-16T22:45:09.013Z,93.23
2019-05-16T22:47:37.790Z,93.25
2019-05-16T22:50:07.659Z,93.33
2019-05-16T22:52:36.769Z,93.27
2019-05-16T22:55:07.473Z,93.19
2019-05-16T22:57:35.873Z,93.26
2019-05-16T23:00:09.481Z,93.39
2019-05-16T23:02:37.786Z,93.23
2019-05-16T23:05:07.384Z,93.14
2019-05-16T23:07:36.702Z,93.06
2019-05-16T23:10:07.445Z,92.72
2019-05-16T23:12:37.211Z,92.64
2019-05-16T23:15:06.751Z,92.63
2019-05-16T23:17:37.313Z,92.84
2019-05-16T23:20:06.498Z,93.01
2019-05-16T23:22:36.693Z,93.12
2019-05-16T23:25:06.529Z,93.20
2019-05-16T23:27:36.855Z,92.88
2019-05-16T23:32:15.146Z,92.63
2019-05-16T23:34:43.548Z,92.85
2019-05-16T23:37:11.875Z,92.81
2019-05-16T23:39:40.187Z,92.77
2019-05-16T23:42:08.843Z,93.00
2019-05-16T23:44:37.221Z,92.99
2019-05-16T23:47:07.042Z,93.02
2019-05-16T23:49:36.652Z,92.73
2019-05-16T23:52:07.252Z,92.76
2019-05-16T23:54:36.858Z,93.00
2019-05-16T23:57:06.640Z,92.95
2019-05-16T23:59:36.887Z,93.03
